Time;durP1;ratioP1;P1;durP2;ratioP2;P2;SDS_P1;SDS_P2;PMS_P1;PMS_P2;Temp;Humidity;BMP_temperature;BMP_pressure;BME280_temperature;BME280_humidity;BME280_pressure;Samples;Min_cycle;Max_cycle;Signal;HPM_P1;HPM_P2
2021/05/06 00:04:38;;;;;;;6.15;2.80;;;17.20;48.60;;;;;;5019913;28;20056;-60
2021/05/06 00:33:52;;;;;;;5.97;2.30;;;16.80;43.60;;;;;;5047181;28;20187;-60
2021/05/06 00:36:18;;;;;;;4.32;2.13;;;16.70;42.80;;;;;;5045071;28;20546;-60
2021/05/06 00:38:50;;;;;;;4.00;2.13;;;16.70;43.20;;;;;;5050283;28;20064;-60
2021/05/06 00:57:10;;;;;;;6.57;1.95;;;16.40;40.30;;;;;;5044215;28;20052;-61
2021/05/06 01:06:03;;;;;;;3.50;1.73;;;16.40;38.40;;;;;;4969658;28;20553;-60
2021/05/06 01:08:33;;;;;;;3.42;1.90;;;16.30;38.30;;;;;;5024816;28;20079;-60
2021/05/06 01:13:34;;;;;;;3.03;1.80;;;16.30;38.00;;;;;;5024380;28;20500;-60
2021/05/06 01:16:00;;;;;;;1.65;1.52;;;16.30;37.30;;;;;;5026581;28;20041;-60
2021/05/06 01:18:26;;;;;;;2.83;2.08;;;16.30;37.00;;;;;;5024714;28;20041;-60
2021/05/06 01:21:00;;;;;;;3.88;2.03;;;16.30;38.00;;;;;;5022373;28;20048;-60
2021/05/06 01:23:40;;;;;;;5.43;2.30;;;16.20;37.90;;;;;;5012764;28;20038;-60
2021/05/06 01:26:17;;;;;;;3.17;2.10;;;16.20;35.10;;;;;;5017354;28;20034;-61
2021/05/06 01:28:46;;;;;;;2.67;2.00;;;16.20;36.70;;;;;;5021522;28;20033;-60
2021/05/06 01:31:24;;;;;;;6.00;2.00;;;16.20;37.10;;;;;;5028320;28;20057;-60
2021/05/06 01:33:57;;;;;;;3.90;2.22;;;16.20;37.30;;;;;;5023810;28;20057;-60
2021/05/06 01:36:27;;;;;;;1.95;1.75;;;16.10;37.20;;;;;;5028362;28;20057;-60
2021/05/06 01:59:53;;;;;;;3.78;2.15;;;15.90;38.00;;;;;;5018350;28;20519;-60
2021/05/06 02:02:19;;;;;;;3.97;2.20;;;15.90;38.00;;;;;;5054542;28;20036;-61
2021/05/06 02:04:45;;;;;;;5.53;2.33;;;15.90;37.60;;;;;;5048530;28;20510;-60
2021/05/06 02:07:10;;;;;;;2.92;1.95;;;15.90;37.40;;;;;;5053858;28;20390;-61
2021/05/06 02:09:37;;;;;;;3.42;2.10;;;15.80;37.80;;;;;;5048897;28;20116;-60
2021/05/06 02:15:26;;;;;;;3.65;1.85;;;15.80;38.80;;;;;;5020067;28;20120;-59
2021/05/06 02:17:53;;;;;;;5.90;2.17;;;15.70;39.30;;;;;;5042475;28;20049;-59
2021/05/06 02:20:19;;;;;;;3.10;2.40;;;15.70;39.70;;;;;;5041458;28;20033;-60
2021/05/06 02:22:46;;;;;;;4.40;2.78;;;15.70;40.60;;;;;;5067844;28;20098;-59
2021/05/06 02:25:13;;;;;;;5.13;2.47;;;15.60;41.30;;;;;;5063060;28;20544;-60
2021/05/06 02:27:39;;;;;;;4.80;2.67;;;15.60;41.50;;;;;;5063753;28;20040;-59
2021/05/06 02:30:06;;;;;;;4.47;2.63;;;15.50;42.00;;;;;;5056939;28;20543;-59
2021/05/06 02:32:31;;;;;;;6.65;2.45;;;15.50;42.00;;;;;;5041648;28;20029;-59
2021/05/06 02:34:58;;;;;;;5.88;2.67;;;15.50;41.90;;;;;;5031302;28;20460;-59
2021/05/06 02:37:24;;;;;;;3.92;2.15;;;15.40;42.70;;;;;;5054834;28;20036;-59
2021/05/06 02:39:50;;;;;;;5.90;2.72;;;15.40;42.50;;;;;;5050301;28;20037;-59
2021/05/06 02:42:16;;;;;;;3.92;2.40;;;15.30;42.80;;;;;;5060652;28;20546;-59
2021/05/06 02:44:42;;;;;;;2.67;2.38;;;15.30;42.60;;;;;;5066195;28;20379;-59
2021/05/06 02:47:08;;;;;;;7.90;3.17;;;15.30;42.70;;;;;;5056998;28;20081;-60
2021/05/06 02:49:35;;;;;;;5.57;2.75;;;15.30;43.10;;;;;;5062449;28;20045;-60
2021/05/06 02:52:07;;;;;;;5.75;2.65;;;15.20;43.70;;;;;;5052943;28;20037;-59
2021/05/06 02:54:43;;;;;;;4.68;2.85;;;15.30;43.70;;;;;;5036256;28;20051;-60
2021/05/06 03:05:13;;;;;;;3.43;2.10;;;15.10;44.10;;;;;;5054272;28;20036;-60
2021/05/06 03:07:41;;;;;;;5.05;2.00;;;15.10;44.20;;;;;;5053939;28;20033;-60
2021/05/06 03:10:26;;;;;;;5.72;2.92;;;15.10;43.80;;;;;;5054261;28;20037;-60
2021/05/06 03:23:26;;;;;;;5.53;2.80;;;15.10;45.50;;;;;;5050028;28;19975;-60
2021/05/06 03:26:02;;;;;;;6.70;2.70;;;15.00;44.80;;;;;;5028925;28;20446;-60
2021/05/06 03:28:33;;;;;;;4.55;2.10;;;15.00;45.20;;;;;;5065278;28;20041;-59
2021/05/06 04:37:48;;;;;;;;;;;14.90;47.10;;;;;;5053154;28;20048;-60
2021/05/06 04:40:26;;;;;;;10.85;2.78;;;14.80;47.00;;;;;;5042543;28;19927;-60
2021/05/06 04:43:29;;;;;;;8.38;2.38;;;14.90;46.40;;;;;;5060543;28;20650;-60
2021/05/06 04:53:48;;;;;;;4.80;2.85;;;14.90;44.30;;;;;;5057492;28;20131;-59
2021/05/06 05:04:40;;;;;;;12.07;3.53;;;14.80;43.70;;;;;;5052115;28;20138;-60
2021/05/06 05:20:25;;;;;;;9.40;4.28;;;14.90;44.00;;;;;;4932418;28;20271;-59
2021/05/06 05:28:03;;;;;;;9.00;4.45;;;15.00;44.80;;;;;;5064799;28;20055;-60
2021/05/06 05:30:30;;;;;;;11.80;5.13;;;15.00;45.20;;;;;;5059691;28;20033;-59
2021/05/06 05:32:57;;;;;;;8.15;4.38;;;15.00;45.60;;;;;;5047946;28;20128;-59
2021/05/06 05:35:38;;;;;;;6.55;4.93;;;14.90;46.20;;;;;;5051092;28;20116;-59
2021/05/06 05:56:23;;;;;;;9.32;6.57;;;15.00;49.90;;;;;;5054866;28;19974;-60
2021/05/06 05:58:51;;;;;;;13.27;7.28;;;15.00;50.10;;;;;;5040986;28;20052;-60
2021/05/06 06:01:17;;;;;;;13.27;8.27;;;15.00;50.70;;;;;;5056518;28;23622;-59
2021/05/06 06:03:43;;;;;;;11.85;7.22;;;14.90;51.30;;;;;;5056025;28;20045;-60
2021/05/06 06:06:09;;;;;;;12.27;6.50;;;15.00;52.00;;;;;;5050094;28;20513;-59
2021/05/06 06:08:36;;;;;;;10.15;7.18;;;15.10;51.60;;;;;;5050119;28;20108;-58
2021/05/06 06:11:05;;;;;;;15.05;6.95;;;15.10;52.80;;;;;;5061414;28;20035;-59
2021/05/06 06:13:31;;;;;;;15.65;8.15;;;15.10;53.00;;;;;;5047174;28;20121;-58
2021/05/06 06:18:48;;;;;;;17.88;7.95;;;15.10;53.70;;;;;;5047218;28;20379;-58
2021/05/06 06:23:42;;;;;;;9.90;7.93;;;15.20;54.90;;;;;;5062900;28;20117;-60
2021/05/06 06:26:08;;;;;;;9.95;8.35;;;15.20;54.60;;;;;;5059960;28;20485;-60
2021/05/06 06:28:44;;;;;;;12.05;8.32;;;15.30;54.80;;;;;;5046366;28;20041;-59
2021/05/06 06:34:01;;;;;;;11.50;8.45;;;15.40;54.50;;;;;;5037116;28;20127;-61
2021/05/06 06:36:27;;;;;;;11.52;8.23;;;15.50;54.60;;;;;;5043271;28;20064;-61
2021/05/06 06:38:53;;;;;;;12.70;8.88;;;15.50;55.10;;;;;;5048379;28;20068;-61
2021/05/06 06:41:19;;;;;;;12.10;8.52;;;15.60;55.40;;;;;;5045296;28;20037;-61
2021/05/06 06:43:47;;;;;;;13.88;8.75;;;15.50;55.50;;;;;;5054587;28;20044;-61
2021/05/06 06:46:13;;;;;;;16.15;9.00;;;15.50;55.50;;;;;;5046749;28;20230;-61
2021/05/06 06:48:39;;;;;;;16.50;9.35;;;15.60;56.60;;;;;;5066793;28;20043;-62
2021/05/06 06:51:05;;;;;;;11.15;9.10;;;15.50;56.40;;;;;;5034700;28;20045;-61
2021/05/06 06:53:31;;;;;;;15.98;8.32;;;15.60;56.30;;;;;;5058114;28;20033;-61
2021/05/06 06:55:57;;;;;;;14.07;8.18;;;15.60;56.40;;;;;;5029570;28;20127;-61
2021/05/06 06:58:23;;;;;;;12.63;8.07;;;15.70;56.50;;;;;;5044420;28;20041;-61
2021/05/06 07:00:49;;;;;;;19.80;9.18;;;15.90;56.80;;;;;;5029110;28;20047;-61
2021/05/06 07:03:15;;;;;;;18.70;8.30;;;15.90;56.70;;;;;;5050424;28;20044;-61
2021/05/06 07:05:41;;;;;;;15.20;7.82;;;15.90;57.40;;;;;;5046042;28;20438;-60
2021/05/06 07:08:20;;;;;;;16.02;7.75;;;15.90;57.60;;;;;;5045888;28;20466;-60
2021/05/06 07:10:50;;;;;;;17.63;7.55;;;15.90;58.70;;;;;;5057139;28;20041;-60
2021/05/06 07:13:17;;;;;;;23.52;8.93;;;15.90;58.40;;;;;;5041726;28;20106;-61
2021/05/06 07:15:46;;;;;;;23.17;7.93;;;15.90;58.20;;;;;;5047140;28;20064;-60
2021/05/06 07:18:11;;;;;;;18.92;8.85;;;15.90;58.50;;;;;;5059494;28;20032;-60
2021/05/06 07:20:37;;;;;;;29.83;8.48;;;16.00;58.60;;;;;;5042122;28;20033;-60
2021/05/06 07:23:03;;;;;;;16.88;8.02;;;16.00;58.70;;;;;;5040513;28;20102;-60
2021/05/06 07:25:29;;;;;;;27.67;7.70;;;16.10;58.60;;;;;;5042806;28;20048;-60
2021/05/06 07:27:55;;;;;;;16.35;8.65;;;16.10;59.20;;;;;;5042398;28;20037;-60
2021/05/06 07:30:21;;;;;;;20.80;7.70;;;16.20;59.40;;;;;;5066384;28;20040;-60
2021/05/06 07:32:47;;;;;;;20.75;8.82;;;16.30;59.70;;;;;;5041043;28;20052;-60
2021/05/06 07:35:13;;;;;;;21.77;8.00;;;16.30;59.80;;;;;;5054151;28;20045;-61
2021/05/06 07:37:40;;;;;;;22.05;9.32;;;16.40;59.20;;;;;;5052747;28;20472;-61
2021/05/06 07:40:07;;;;;;;28.27;9.77;;;16.40;59.30;;;;;;5052488;28;20034;-60
2021/05/06 07:42:33;;;;;;;21.38;8.82;;;16.40;59.20;;;;;;5049235;28;20512;-61
2021/05/06 07:44:59;;;;;;;25.63;9.18;;;16.50;59.10;;;;;;5050220;28;20037;-59
2021/05/06 07:47:24;;;;;;;23.45;8.80;;;16.60;58.90;;;;;;5047386;28;20402;-61
2021/05/06 07:49:50;;;;;;;21.15;8.35;;;16.60;59.20;;;;;;5049580;28;20040;-61
2021/05/06 07:52:21;;;;;;;17.45;8.63;;;16.60;59.50;;;;;;5060608;28;20120;-61
2021/05/06 07:54:48;;;;;;;24.23;8.80;;;16.60;59.40;;;;;;5065770;28;20040;-61
2021/05/06 07:57:13;;;;;;;22.20;8.20;;;16.70;59.50;;;;;;5054152;28;20037;-61
2021/05/06 07:59:39;;;;;;;21.65;8.65;;;16.80;59.20;;;;;;5058038;28;20040;-61
2021/05/06 08:02:06;;;;;;;20.58;7.70;;;16.80;59.20;;;;;;5060342;28;22003;-61
2021/05/06 08:04:32;;;;;;;28.98;7.97;;;17.00;58.90;;;;;;5044554;28;20119;-61
2021/05/06 08:06:59;;;;;;;19.40;9.25;;;17.00;58.30;;;;;;5068775;28;20105;-61
2021/05/06 08:09:25;;;;;;;20.45;8.25;;;16.90;58.50;;;;;;5053620;28;20045;-61
2021/05/06 08:11:51;;;;;;;15.13;8.18;;;17.00;58.50;;;;;;5055194;28;20056;-62
2021/05/06 08:14:17;;;;;;;22.40;10.13;;;17.10;58.40;;;;;;5048364;28;20044;-61
2021/05/06 08:16:43;;;;;;;17.13;8.82;;;17.20;58.00;;;;;;5049895;28;20101;-61
2021/05/06 08:19:09;;;;;;;13.82;8.45;;;17.40;57.50;;;;;;5044721;28;20396;-61
2021/05/06 08:21:36;;;;;;;18.77;8.43;;;17.50;57.00;;;;;;5053605;28;20044;-61
2021/05/06 08:24:02;;;;;;;23.13;8.70;;;17.50;56.80;;;;;;5048956;28;20069;-61
2021/05/06 08:26:28;;;;;;;16.10;6.65;;;17.60;56.60;;;;;;5062870;28;20032;-61
2021/05/06 08:28:54;;;;;;;16.92;6.00;;;17.60;55.80;;;;;;5046481;28;20123;-61
2021/05/06 08:31:21;;;;;;;19.92;6.57;;;17.60;55.10;;;;;;5054546;28;20436;-61
2021/05/06 08:33:47;;;;;;;24.13;7.05;;;17.70;55.70;;;;;;5036502;28;20041;-61
2021/05/06 08:36:12;;;;;;;16.48;6.90;;;17.80;55.70;;;;;;5051922;28;20090;-61
2021/05/06 08:38:39;;;;;;;17.40;7.15;;;17.80;55.50;;;;;;5043823;28;20041;-61
2021/05/06 08:41:05;;;;;;;15.52;5.95;;;17.90;55.90;;;;;;5062708;28;20043;-61
2021/05/06 08:43:34;;;;;;;23.35;6.97;;;18.00;55.40;;;;;;5067699;28;20056;-61
2021/05/06 08:46:00;;;;;;;14.68;5.00;;;18.10;55.70;;;;;;5064870;28;20051;-61
2021/05/06 08:48:29;;;;;;;13.98;4.60;;;18.10;53.10;;;;;;5070223;28;20478;-60
2021/05/06 08:50:55;;;;;;;16.00;5.50;;;18.10;52.30;;;;;;5043613;28;20064;-60
2021/05/06 08:56:42;;;;;;;12.60;4.40;;;18.20;50.90;;;;;;5015586;28;20051;-61
2021/05/06 08:59:08;;;;;;;12.95;3.83;;;18.30;50.50;;;;;;5055673;28;20037;-60
2021/05/06 09:01:34;;;;;;;11.25;4.18;;;18.40;49.10;;;;;;5043522;28;20057;-60
2021/05/06 09:03:59;;;;;;;9.13;3.83;;;18.40;48.60;;;;;;5053040;28;20049;-60
2021/05/06 09:06:25;;;;;;;12.18;4.10;;;18.40;47.80;;;;;;5053524;28;20033;-61
2021/05/06 09:08:56;;;;;;;9.95;4.60;;;18.50;47.40;;;;;;5029474;28;20052;-61
2021/05/06 09:11:37;;;;;;;14.50;4.20;;;18.60;46.90;;;;;;5059711;28;20039;-61
2021/05/06 09:14:07;;;;;;;14.15;5.45;;;18.80;46.60;;;;;;4989961;28;20044;-61
2021/05/06 09:16:38;;;;;;;7.47;4.88;;;18.90;46.90;;;;;;5063503;28;20047;-62
2021/05/06 09:19:10;;;;;;;11.82;4.70;;;19.00;46.50;;;;;;5053507;28;20045;-61
2021/05/06 09:21:42;;;;;;;11.90;5.60;;;19.00;46.20;;;;;;5049047;28;20032;-61
2021/05/06 09:24:20;;;;;;;10.68;5.05;;;19.10;46.10;;;;;;5046194;28;20044;-62
2021/05/06 09:26:47;;;;;;;12.48;5.28;;;19.20;46.50;;;;;;5059113;28;20029;-62
2021/05/06 09:29:29;;;;;;;12.38;5.15;;;19.20;46.70;;;;;;5063675;28;20032;-62
2021/05/06 09:32:08;;;;;;;12.02;4.47;;;19.40;46.50;;;;;;5045033;28;20072;-61
2021/05/06 09:41:23;;;;;;;11.70;4.05;;;19.20;47.00;;;;;;4995430;28;20056;-60
2021/05/06 09:43:50;;;;;;;9.45;3.90;;;19.20;46.70;;;;;;5028836;28;20045;-61
2021/05/06 09:46:35;;;;;;;17.08;3.65;;;19.40;46.70;;;;;;5048734;28;20032;-61
2021/05/06 09:49:07;;;;;;;12.95;3.75;;;19.40;46.00;;;;;;5062543;28;20052;-60
2021/05/06 09:51:47;;;;;;;10.32;3.25;;;19.50;45.70;;;;;;5052232;28;20091;-60
2021/05/06 09:54:19;;;;;;;12.93;4.10;;;19.50;45.00;;;;;;5050329;28;20041;-60
2021/05/06 09:56:47;;;;;;;13.57;3.58;;;19.60;45.20;;;;;;5037165;28;20067;-60
2021/05/06 09:59:22;;;;;;;18.85;15.45;;;19.70;45.60;;;;;;5065917;28;20436;-60
2021/05/06 10:01:48;;;;;;;11.40;3.90;;;19.80;45.20;;;;;;5036431;28;20055;-60
2021/05/06 10:04:24;;;;;;;9.27;2.88;;;19.80;45.30;;;;;;5016254;28;20058;-58
2021/05/06 10:07:25;;;;;;;12.68;3.53;;;19.80;45.00;;;;;;5016940;28;20030;-60
2021/05/06 10:09:56;;;;;;;14.52;3.85;;;19.90;45.00;;;;;;4999906;28;20480;-60
2021/05/06 10:12:24;;;;;;;9.40;3.45;;;20.00;45.10;;;;;;5012711;28;20041;-61
2021/05/06 10:14:50;;;;;;;12.18;3.78;;;20.10;45.10;;;;;;5027870;28;20068;-61
2021/05/06 10:17:18;;;;;;;11.70;3.25;;;20.30;45.40;;;;;;5027289;28;20104;-61
2021/05/06 10:19:44;;;;;;;15.80;5.82;;;20.30;45.10;;;;;;5007747;28;20068;-60
2021/05/06 10:22:11;;;;;;;15.63;5.18;;;20.30;45.50;;;;;;5012117;28;20104;-63
2021/05/06 10:24:41;;;;;;;13.63;4.85;;;20.50;45.20;;;;;;5019570;28;20511;-61
2021/05/06 10:27:33;;;;;;;9.02;3.17;;;20.70;43.80;;;;;;5012239;28;20527;-61
2021/05/06 10:30:02;;;;;;;11.57;3.42;;;20.70;42.50;;;;;;5018955;28;20057;-58
2021/05/06 10:32:31;;;;;;;9.32;3.65;;;20.80;43.20;;;;;;5025958;28;20037;-60
2021/05/06 10:35:02;;;;;;;9.27;3.17;;;20.90;43.50;;;;;;5017190;28;20037;-60
2021/05/06 10:37:31;;;;;;;12.38;4.70;;;20.80;42.50;;;;;;5020317;28;20492;-60
2021/05/06 10:39:58;;;;;;;10.93;4.35;;;20.90;42.60;;;;;;5016105;28;20041;-60
2021/05/06 10:42:27;;;;;;;6.88;3.28;;;21.00;42.60;;;;;;5027953;28;20042;-60
2021/05/06 10:45:12;;;;;;;10.38;4.53;;;21.10;42.20;;;;;;5025077;28;20044;-61
2021/05/06 10:47:41;;;;;;;9.80;3.47;;;21.30;40.80;;;;;;4983125;28;20045;-61
2021/05/06 10:50:14;;;;;;;9.57;3.97;;;21.40;40.70;;;;;;5012316;28;20496;-61
2021/05/06 10:52:42;;;;;;;9.90;3.88;;;21.40;40.80;;;;;;5023094;28;20121;-60
2021/05/06 10:55:10;;;;;;;9.95;4.13;;;21.40;40.10;;;;;;5021835;28;20034;-57
2021/05/06 10:57:37;;;;;;;13.40;5.53;;;21.30;41.50;;;;;;5013420;28;20084;-60
2021/05/06 11:00:22;;;;;;;22.60;8.27;;;21.30;42.60;;;;;;5019131;28;20382;-60
2021/05/06 11:02:51;;;;;;;76.82;32.72;;;21.20;42.90;;;;;;5037158;28;20106;-59
2021/05/06 11:05:21;;;;;;;16.20;4.80;;;21.30;43.00;;;;;;5062041;28;20053;-58
2021/05/06 11:08:05;;;;;;;17.50;5.20;;;21.20;43.30;;;;;;5065666;28;20044;-59
2021/05/06 11:10:45;;;;;;;13.90;5.82;;;21.20;42.80;;;;;;5051598;28;20025;-60
2021/05/06 11:13:11;;;;;;;21.70;10.15;;;21.10;42.80;;;;;;5052211;28;20036;-61
2021/05/06 11:15:37;;;;;;;13.55;5.38;;;21.00;43.10;;;;;;5055917;28;20024;-60
2021/05/06 11:18:05;;;;;;;16.70;4.45;;;20.90;43.40;;;;;;5048452;28;20036;-60
2021/05/06 11:20:30;;;;;;;14.25;6.88;;;20.90;43.90;;;;;;5042491;28;20647;-60
2021/05/06 11:22:58;;;;;;;14.13;4.85;;;20.80;43.70;;;;;;5054741;28;20049;-62
2021/05/06 11:25:42;;;;;;;14.20;6.20;;;20.80;44.00;;;;;;5055401;28;20033;-62
2021/05/06 11:28:11;;;;;;;19.30;6.53;;;20.90;43.80;;;;;;5021259;28;20037;-61
2021/05/06 11:30:43;;;;;;;19.38;5.78;;;21.00;43.60;;;;;;5048685;28;20272;-60
2021/05/06 11:33:21;;;;;;;16.95;5.35;;;21.10;42.80;;;;;;5048250;28;20030;-61
2021/05/06 11:36:12;;;;;;;18.98;6.03;;;21.80;42.10;;;;;;5043124;28;20036;-61
2021/05/06 11:38:38;;;;;;;12.93;5.72;;;22.20;41.40;;;;;;5027212;28;20033;-60
2021/05/06 11:41:43;;;;;;;17.58;5.68;;;22.20;41.20;;;;;;5036445;28;20037;-60
2021/05/06 11:44:09;;;;;;;12.95;4.63;;;22.30;41.20;;;;;;4957961;28;20049;-59
2021/05/06 11:46:39;;;;;;;17.73;5.35;;;22.40;40.60;;;;;;4977508;28;20085;-59
2021/05/06 11:49:11;;;;;;;9.95;4.93;;;22.70;40.00;;;;;;5017446;28;20379;-58
2021/05/06 11:51:41;;;;;;;20.40;6.47;;;22.70;40.00;;;;;;5055396;28;20441;-61
2021/05/06 11:54:12;;;;;;;11.57;4.82;;;22.70;39.60;;;;;;5061001;28;20391;-62
2021/05/06 11:56:43;;;;;;;9.95;4.07;;;22.90;38.80;;;;;;5036650;28;20047;-60
2021/05/06 11:59:17;;;;;;;17.40;5.68;;;23.50;38.30;;;;;;5067267;28;20033;-60
2021/05/06 12:01:43;;;;;;;14.50;4.67;;;24.10;37.20;;;;;;5062545;28;20043;-60
2021/05/06 12:04:24;;;;;;;9.60;4.18;;;24.60;35.10;;;;;;5056776;28;20275;-60
2021/05/06 12:06:50;;;;;;;7.28;3.80;;;24.70;34.40;;;;;;5054224;28;20055;-60
2021/05/06 12:09:25;;;;;;;11.82;4.35;;;24.30;36.30;;;;;;5055613;28;20033;-60
2021/05/06 12:11:51;;;;;;;17.30;4.68;;;24.80;35.70;;;;;;5066546;28;20037;-60
2021/05/06 12:14:32;;;;;;;11.45;5.57;;;24.50;35.70;;;;;;5042319;28;20035;-61
2021/05/06 12:16:58;;;;;;;21.05;5.95;;;24.40;35.00;;;;;;5044899;28;20081;-61
2021/05/06 12:19:24;;;;;;;20.95;6.05;;;24.50;35.60;;;;;;5043557;28;20029;-60
2021/05/06 12:21:52;;;;;;;8.05;4.13;;;24.40;35.50;;;;;;5054692;28;20043;-60
2021/05/06 12:24:33;;;;;;;9.35;4.00;;;23.90;34.90;;;;;;5061396;28;20521;-60
2021/05/06 12:27:22;;;;;;;7.72;3.72;;;24.10;35.30;;;;;;5064934;28;20048;-61
2021/05/06 12:29:49;;;;;;;8.50;3.58;;;23.60;34.30;;;;;;4988099;28;20438;-60
2021/05/06 12:32:25;;;;;;;6.88;4.43;;;23.70;36.10;;;;;;5068384;28;20048;-61
2021/05/06 12:34:53;;;;;;;10.65;3.75;;;24.00;35.90;;;;;;5046451;28;20043;-60
2021/05/06 12:37:26;;;;;;;14.82;4.32;;;23.80;36.20;;;;;;5051055;28;20036;-61
2021/05/06 12:40:00;;;;;;;10.48;4.35;;;24.10;35.50;;;;;;5043023;28;20484;-59
2021/05/06 12:42:27;;;;;;;;;;;23.50;36.60;;;;;;5049811;28;20119;-60
2021/05/06 12:44:53;;;;;;;8.40;4.07;;;23.20;36.70;;;;;;5034878;28;20428;-60
2021/05/06 12:47:20;;;;;;;7.13;4.10;;;23.20;37.40;;;;;;5042358;28;20033;-61
2021/05/06 12:50:06;;;;;;;16.25;4.72;;;23.30;37.30;;;;;;5051728;28;20076;-60
2021/05/06 12:52:36;;;;;;;7.97;4.20;;;23.30;37.00;;;;;;5053505;28;20106;-59
2021/05/06 12:55:14;;;;;;;8.50;3.83;;;23.30;36.40;;;;;;5045579;28;20051;-59
2021/05/06 12:57:40;;;;;;;11.32;4.72;;;23.30;36.30;;;;;;5055235;28;20052;-59
2021/05/06 13:00:20;;;;;;;10.57;4.68;;;23.20;36.70;;;;;;5045480;28;20382;-59
2021/05/06 13:02:46;;;;;;;11.52;4.63;;;23.20;36.90;;;;;;5054750;28;20071;-60
2021/05/06 13:05:26;;;;;;;10.02;4.22;;;23.30;36.60;;;;;;5049817;28;20563;-59
2021/05/06 13:07:52;;;;;;;11.02;4.25;;;23.30;36.40;;;;;;5045514;28;20075;-60
2021/05/06 13:10:34;;;;;;;10.27;3.53;;;23.20;36.40;;;;;;5048195;28;20494;-60
2021/05/06 13:13:01;;;;;;;11.25;4.03;;;23.00;36.00;;;;;;5056454;28;20597;-60
2021/05/06 13:15:27;;;;;;;11.38;4.43;;;22.80;37.10;;;;;;5047909;28;20037;-61
2021/05/06 13:17:53;;;;;;;17.05;5.72;;;22.70;37.40;;;;;;5069434;28;20063;-61
2021/05/06 13:20:20;;;;;;;17.02;4.75;;;22.60;37.30;;;;;;5046618;28;20032;-60
2021/05/06 13:23:04;;;;;;;12.70;4.72;;;22.50;37.80;;;;;;5057633;28;20048;-60
2021/05/06 13:25:41;;;;;;;10.60;5.13;;;22.40;38.10;;;;;;5050259;28;20040;-60
2021/05/06 13:28:08;;;;;;;12.52;5.45;;;22.40;38.60;;;;;;5035630;28;20054;-60
2021/05/06 13:30:34;;;;;;;9.65;4.32;;;22.40;38.60;;;;;;5051632;28;22302;-60
2021/05/06 13:33:17;;;;;;;9.23;5.03;;;22.40;38.90;;;;;;5056923;28;20041;-60
2021/05/06 13:35:59;;;;;;;9.45;4.50;;;22.30;38.80;;;;;;4999007;28;20041;-60
2021/05/06 13:38:25;;;;;;;7.75;4.38;;;22.30;38.70;;;;;;5029817;28;20033;-60
2021/05/06 13:40:51;;;;;;;8.00;5.03;;;22.20;39.00;;;;;;5042991;28;20498;-59
2021/05/06 13:43:16;;;;;;;10.73;4.82;;;22.30;38.90;;;;;;5058041;28;20079;-59
2021/05/06 13:45:42;;;;;;;9.20;4.93;;;22.70;38.40;;;;;;5054123;28;20410;-58
2021/05/06 13:48:08;;;;;;;8.32;3.95;;;23.90;37.10;;;;;;5048266;28;20048;-59
2021/05/06 13:50:33;;;;;;;11.77;4.30;;;24.40;35.80;;;;;;5036306;28;20055;-58
2021/05/06 13:53:01;;;;;;;343.27;35.33;;;;;;;;;;5051472;28;20044;-59
2021/05/06 13:55:27;;;;;;;23.83;6.15;;;25.40;33.80;;;;;;5065202;28;20060;-57
2021/05/06 13:57:52;;;;;;;11.73;4.95;;;25.80;33.60;;;;;;5058452;28;20059;-55
2021/05/06 14:00:19;;;;;;;11.88;4.28;;;26.00;33.10;;;;;;5054792;28;20060;-56
2021/05/06 14:02:45;;;;;;;38.05;6.90;;;26.30;32.90;;;;;;5053933;28;20032;-59
2021/05/06 14:05:12;;;;;;;10.00;4.82;;;26.10;30.50;;;;;;5055450;28;20036;-59
2021/05/06 14:07:37;;;;;;;11.00;4.78;;;26.40;31.70;;;;;;5043401;28;20033;-59
2021/05/06 14:10:03;;;;;;;9.82;3.83;;;26.70;31.00;;;;;;5052628;28;20461;-59
2021/05/06 14:12:29;;;;;;;10.63;4.35;;;27.50;31.40;;;;;;5059203;28;20037;-60
2021/05/06 14:14:54;;;;;;;6.55;4.13;;;27.10;30.00;;;;;;5044102;28;20041;-59
2021/05/06 14:17:20;;;;;;;9.80;4.15;;;26.40;31.30;;;;;;5054208;28;20087;-58
2021/05/06 14:19:46;;;;;;;11.40;4.38;;;25.70;31.90;;;;;;5044975;28;20080;-59
2021/05/06 14:22:11;;;;;;;10.98;5.10;;;24.90;32.60;;;;;;5053361;28;20081;-60
2021/05/06 14:38:08;;;;;;;10.23;4.82;;;23.50;35.10;;;;;;4991501;28;20064;-58
2021/05/06 14:40:34;;;;;;;10.93;3.92;;;23.20;36.10;;;;;;5059926;28;20044;-59
2021/05/06 14:43:00;;;;;;;10.85;4.55;;;23.00;36.40;;;;;;5035931;28;20055;-60
2021/05/06 14:45:25;;;;;;;11.75;4.05;;;23.00;36.80;;;;;;5035346;28;20128;-60
2021/05/06 14:47:51;;;;;;;9.88;3.70;;;22.80;37.00;;;;;;5059638;28;20028;-60
2021/05/06 15:07:31;;;;;;;6.88;3.58;;;22.10;38.70;;;;;;4987750;28;20051;-59
2021/05/06 15:09:57;;;;;;;8.27;3.53;;;22.10;38.70;;;;;;5056321;28;20041;-60
2021/05/06 15:12:22;;;;;;;12.40;4.07;;;22.00;38.80;;;;;;5038039;28;20033;-59
2021/05/06 15:14:48;;;;;;;8.43;4.32;;;22.00;39.00;;;;;;5048640;28;20037;-60
2021/05/06 15:17:14;;;;;;;9.60;4.72;;;21.80;39.60;;;;;;5048826;28;20515;-60
2021/05/06 15:19:39;;;;;;;12.65;4.68;;;21.70;40.50;;;;;;5038410;28;20051;-60
2021/05/06 15:22:05;;;;;;;13.63;4.88;;;21.60;40.80;;;;;;5058714;28;20047;-60
2021/05/06 15:24:31;;;;;;;11.50;5.10;;;21.60;41.30;;;;;;5044252;28;20044;-59
2021/05/06 15:26:56;;;;;;;11.30;5.68;;;21.60;41.50;;;;;;5041173;28;20037;-60
2021/05/06 15:29:22;;;;;;;15.93;5.85;;;21.60;42.10;;;;;;5021050;28;20045;-60
2021/05/06 15:32:34;;;;;;;16.48;6.65;;;21.40;42.30;;;;;;5053604;28;20045;-59
2021/05/06 15:35:01;;;;;;;11.18;6.18;;;21.50;43.00;;;;;;5035585;28;20040;-59
2021/05/06 15:37:27;;;;;;;15.80;6.03;;;21.50;42.60;;;;;;5054875;28;20040;-60
2021/05/06 15:39:54;;;;;;;14.88;6.75;;;21.40;43.40;;;;;;5052652;28;20044;-60
2021/05/06 15:42:19;;;;;;;14.35;6.25;;;21.40;43.70;;;;;;5041976;28;20073;-60
2021/05/06 15:45:40;;;;;;;10.02;5.82;;;21.30;43.20;;;;;;5043743;28;20134;-59
2021/05/06 15:48:07;;;;;;;14.52;6.65;;;21.40;43.80;;;;;;4994179;28;20452;-59
2021/05/06 15:50:33;;;;;;;10.90;6.45;;;21.20;43.60;;;;;;5042894;28;20049;-60
2021/05/06 15:53:00;;;;;;;10.38;5.78;;;21.20;43.70;;;;;;5045916;28;20045;-60
2021/05/06 15:55:26;;;;;;;9.77;5.55;;;21.20;43.50;;;;;;5050735;28;20032;-59
2021/05/06 15:57:51;;;;;;;11.18;5.82;;;21.20;43.90;;;;;;5060090;28;20025;-60
2021/05/06 16:00:18;;;;;;;8.90;5.40;;;21.20;44.00;;;;;;5048087;28;20033;-60
2021/05/06 16:02:47;;;;;;;11.90;5.53;;;21.20;44.10;;;;;;5041064;28;20372;-59
2021/05/06 16:05:37;;;;;;;10.75;6.10;;;21.20;44.10;;;;;;5049088;28;20760;-59
2021/05/06 16:07:59;;;;;;;9.68;5.63;;;21.00;44.30;;;;;;5040970;28;20059;-59
2021/05/06 16:10:26;;;;;;;13.70;6.80;;;21.00;44.50;;;;;;5048441;28;20045;-59
2021/05/06 16:12:52;;;;;;;16.08;6.53;;;20.90;44.70;;;;;;5031774;28;20091;-59
2021/05/06 16:15:18;;;;;;;14.38;5.75;;;20.90;50.60;;;;;;5055924;28;20044;-59
2021/05/06 16:17:44;;;;;;;11.18;5.90;;;21.10;48.80;;;;;;5027066;28;20411;-58
2021/05/06 16:20:16;;;;;;;15.35;6.07;;;21.10;47.60;;;;;;5047412;28;20040;-60
2021/05/06 16:22:43;;;;;;;9.55;5.70;;;21.30;47.00;;;;;;5043508;28;20501;-60
2021/05/06 16:25:11;;;;;;;13.10;5.75;;;21.20;46.10;;;;;;5054658;28;20032;-60
2021/05/06 16:27:38;;;;;;;14.07;5.72;;;21.20;45.70;;;;;;5044703;28;20033;-60
2021/05/06 16:30:09;;;;;;;12.13;5.40;;;21.10;45.00;;;;;;5054001;28;20151;-59
2021/05/06 16:32:35;;;;;;;13.63;6.25;;;21.10;44.60;;;;;;5044336;28;20042;-60
2021/05/06 16:35:03;;;;;;;10.23;6.28;;;20.90;44.60;;;;;;5050119;28;20048;-60
2021/05/06 16:37:44;;;;;;;9.50;6.30;;;20.90;44.50;;;;;;5046622;28;20048;-60
2021/05/06 16:45:13;;;;;;;11.60;5.45;;;20.90;44.60;;;;;;5062765;28;20033;-52
2021/05/06 16:47:39;;;;;;;23.70;14.35;;;20.80;44.80;;;;;;5046977;28;20476;-59
2021/05/06 16:50:05;;;;;;;24.50;15.35;;;20.80;44.80;;;;;;5059575;28;20055;-60
2021/05/06 16:52:31;;;;;;;12.68;6.53;;;20.80;44.70;;;;;;5064563;28;20149;-58
2021/05/06 16:54:57;;;;;;;13.25;6.70;;;20.80;44.70;;;;;;5059451;28;20123;-58
2021/05/06 16:57:22;;;;;;;12.25;5.93;;;20.80;44.60;;;;;;5043747;28;20046;-60
2021/05/06 16:59:50;;;;;;;11.13;5.90;;;20.70;44.90;;;;;;5055157;28;20502;-59
2021/05/06 17:02:16;;;;;;;11.23;5.90;;;20.70;44.90;;;;;;5048374;28;20087;-59
2021/05/06 17:04:42;;;;;;;13.30;6.03;;;20.60;44.80;;;;;;5047344;28;20065;-59
2021/05/06 17:07:07;;;;;;;12.80;6.70;;;20.60;44.60;;;;;;5062960;28;20044;-58
2021/05/06 17:09:37;;;;;;;11.40;5.95;;;20.60;44.60;;;;;;5055608;28;20049;-58
2021/05/06 17:12:03;;;;;;;14.82;5.95;;;20.70;44.50;;;;;;5058454;28;20084;-60
2021/05/06 17:14:29;;;;;;;15.23;5.90;;;20.80;44.40;;;;;;5057827;28;20047;-59
2021/05/06 17:16:56;;;;;;;12.82;6.10;;;20.80;44.30;;;;;;5054328;28;20044;-57
2021/05/06 17:19:22;;;;;;;14.13;6.57;;;20.80;44.40;;;;;;5045684;28;20067;-59
2021/05/06 17:21:48;;;;;;;11.63;5.93;;;20.80;44.40;;;;;;5048736;28;20095;-60
2021/05/06 17:24:16;;;;;;;11.85;5.22;;;20.70;44.40;;;;;;5062175;28;20066;-59